Time;durP1;ratioP1;P1;durP2;ratioP2;P2;SDS_P1;SDS_P2;PMS_P1;PMS_P2;Temp;Humidity;BMP_temperature;BMP_pressure;BME280_temperature;BME280_humidity;BME280_pressure;Samples;Min_cycle;Max_cycle;Signal;HPM_P1;HPM_P2
2023/05/18 00:00:14;;;;;;;7.00;3.10;;;;;;;12.24;52.01;102998.50;5048050;28;20036;-48
2023/05/18 00:02:40;;;;;;;12.38;3.67;;;;;;;12.21;52.27;102993.13;5047919;28;20033;-45
2023/05/18 00:05:07;;;;;;;9.60;3.45;;;;;;;12.15;52.43;102995.50;5048144;28;20040;-45
2023/05/18 00:07:32;;;;;;;12.43;3.70;;;;;;;12.17;51.95;102999.97;5047702;28;20057;-51
2023/05/18 00:09:59;;;;;;;9.18;3.42;;;;;;;12.09;52.51;103000.47;5047640;28;20076;-49
2023/05/18 00:12:24;;;;;;;9.52;3.80;;;;;;;12.02;53.07;103003.66;5047951;28;20414;-49
2023/05/18 00:14:50;;;;;;;10.18;3.70;;;;;;;12.02;53.14;103001.94;5047426;28;20033;-50
2023/05/18 00:17:15;;;;;;;9.23;3.60;;;;;;;12.02;52.99;103006.28;5047402;28;20051;-47
2023/05/18 00:19:40;;;;;;;8.35;3.40;;;;;;;12.00;53.41;103010.59;5047795;28;20039;-46
2023/05/18 00:22:06;;;;;;;9.25;3.70;;;;;;;11.90;54.09;103011.91;5048219;28;20025;-48
2023/05/18 00:24:32;;;;;;;9.27;3.65;;;;;;;11.91;53.74;103000.63;5048414;28;20033;-48
2023/05/18 00:26:57;;;;;;;14.13;3.60;;;;;;;11.95;53.57;103009.50;5051466;28;20055;-44
2023/05/18 00:29:22;;;;;;;9.25;3.70;;;;;;;11.86;54.02;103014.34;5051408;28;20044;-45
2023/05/18 00:31:48;;;;;;;10.48;3.63;;;;;;;11.82;54.15;103013.31;5051165;28;20021;-51
2023/05/18 00:34:15;;;;;;;9.15;3.60;;;;;;;11.77;54.45;103005.25;5051412;28;20040;-46
2023/05/18 00:36:40;;;;;;;7.35;3.70;;;;;;;11.74;55.06;103009.47;5051195;28;20398;-48
2023/05/18 00:39:07;;;;;;;8.73;3.83;;;;;;;11.73;55.13;103005.97;5051443;28;20025;-45
2023/05/18 00:41:33;;;;;;;10.45;3.97;;;;;;;11.70;55.23;103005.81;5051042;28;20554;-47
2023/05/18 00:43:59;;;;;;;9.60;4.10;;;;;;;11.70;55.40;103007.53;5050894;28;20120;-48
2023/05/18 00:46:27;;;;;;;10.75;3.83;;;;;;;11.70;55.57;103003.22;5050904;28;20156;-44
2023/05/18 00:48:53;;;;;;;7.63;3.70;;;;;;;11.67;56.45;103012.63;5050822;28;20033;-44
2023/05/18 00:51:24;;;;;;;9.23;3.75;;;;;;;11.65;56.56;103007.31;5050584;28;20352;-48
2023/05/18 00:53:51;;;;;;;10.77;3.88;;;;;;;11.64;57.03;103002.94;5050637;28;20105;-47
2023/05/18 00:56:18;;;;;;;8.75;3.90;;;;;;;11.72;56.34;103005.88;5050594;28;20048;-52
2023/05/18 00:58:43;;;;;;;10.57;4.43;;;;;;;11.70;56.60;103008.44;5050718;28;20041;-51
2023/05/18 01:01:09;;;;;;;10.45;4.00;;;;;;;11.70;56.22;103004.94;5050453;28;20557;-44
2023/05/18 01:03:38;;;;;;;10.20;4.05;;;;;;;11.64;56.21;103013.41;5050996;28;20033;-49
2023/05/18 01:06:04;;;;;;;7.82;4.18;;;;;;;11.63;56.49;103015.94;5050702;28;20138;-47
2023/05/18 01:08:31;;;;;;;10.90;4.53;;;;;;;11.62;56.30;103020.28;5050574;28;20032;-50
2023/05/18 01:11:08;;;;;;;11.70;4.30;;;;;;;11.59;56.45;103019.22;5050398;28;20032;-48
2023/05/18 01:14:00;;;;;;;11.55;4.47;;;;;;;11.54;56.92;103015.53;5050650;28;20067;-44
2023/05/18 01:16:33;;;;;;;9.82;4.40;;;;;;;11.52;57.09;103017.19;5050135;28;20040;-45
2023/05/18 01:19:36;;;;;;;8.95;4.32;;;;;;;11.56;56.37;103016.50;5050374;28;22074;-50
2023/05/18 01:22:12;;;;;;;9.55;4.35;;;;;;;11.55;56.41;103019.94;5018928;28;20033;-47
2023/05/18 01:24:41;;;;;;;11.35;4.25;;;;;;;11.54;56.72;103010.31;5051250;28;20048;-47
2023/05/18 01:27:08;;;;;;;9.05;4.38;;;;;;;11.54;56.37;103016.41;5050415;28;20062;-48
2023/05/18 01:29:34;;;;;;;11.50;4.70;;;;;;;11.53;56.57;103018.97;5050175;28;20399;-47
2023/05/18 01:31:59;;;;;;;12.98;4.78;;;;;;;11.54;56.52;103018.13;5050157;28;20120;-46
2023/05/18 01:34:25;;;;;;;9.57;4.30;;;;;;;11.56;56.29;103012.16;5050143;28;20208;-50
2023/05/18 01:36:50;;;;;;;7.72;4.13;;;;;;;11.62;56.16;103017.66;5049899;28;20053;-48
2023/05/18 01:39:15;;;;;;;9.95;4.53;;;;;;;11.60;56.60;103018.41;5049883;28;20068;-45
2023/05/18 01:41:53;;;;;;;9.98;4.45;;;;;;;11.62;56.27;103017.66;5050228;28;20033;-44
2023/05/18 01:44:25;;;;;;;13.43;5.13;;;;;;;11.61;56.60;103015.88;5050921;28;20033;-45
2023/05/18 01:47:03;;;;;;;10.35;4.43;;;;;;;11.67;56.32;103010.91;5050960;28;20033;-45
2023/05/18 01:49:41;;;;;;;12.65;4.38;;;;;;;11.65;55.96;103019.50;5050984;28;20095;-44
2023/05/18 01:52:15;;;;;;;8.43;4.30;;;;;;;11.61;56.06;103025.41;5050636;28;20399;-40
2023/05/18 01:54:43;;;;;;;12.25;4.50;;;;;;;11.55;56.76;103023.44;5050030;28;20674;-45
2023/05/18 01:57:09;;;;;;;9.95;4.05;;;;;;;11.51;56.27;103021.53;5051017;28;20072;-45
2023/05/18 01:59:36;;;;;;;11.05;4.28;;;;;;;11.52;56.32;103019.81;5050955;28;20082;-45
2023/05/18 02:02:02;;;;;;;12.90;4.72;;;;;;;11.57;56.43;103021.78;5049709;28;20032;-46
2023/05/18 02:04:28;;;;;;;11.07;4.68;;;;;;;11.47;56.80;103023.91;5050404;28;20126;-43
2023/05/18 02:06:54;;;;;;;9.00;4.55;;;;;;;11.45;56.44;103016.03;5050152;28;20103;-45
2023/05/18 02:09:20;;;;;;;9.93;4.32;;;;;;;11.44;56.54;103018.56;5050054;28;20507;-45
2023/05/18 02:11:46;;;;;;;9.13;4.22;;;;;;;11.36;56.99;103018.22;5049256;28;20514;-46
2023/05/18 02:14:11;;;;;;;7.15;4.28;;;;;;;11.42;56.70;103015.00;5049427;28;20029;-48
2023/05/18 02:16:36;;;;;;;8.98;4.10;;;;;;;11.36;56.38;103013.91;5049743;28;20376;-45
2023/05/18 02:19:02;;;;;;;9.63;4.43;;;;;;;11.34;56.67;103018.16;5049840;28;20055;-46
2023/05/18 02:21:28;;;;;;;9.25;4.13;;;;;;;11.29;56.67;103016.16;5049638;28;20495;-49
2023/05/18 02:23:53;;;;;;;11.48;4.25;;;;;;;11.23;56.71;103019.41;5049637;28;20025;-45
2023/05/18 02:26:18;;;;;;;8.00;4.13;;;;;;;11.22;56.62;103022.81;5049528;28;20119;-45
2023/05/18 02:28:44;;;;;;;11.43;4.28;;;;;;;11.24;56.61;103023.81;5049304;28;20116;-45
2023/05/18 02:31:10;;;;;;;8.52;4.00;;;;;;;11.13;57.28;103011.09;5048863;28;20102;-45
2023/05/18 02:33:39;;;;;;;8.93;3.67;;;;;;;11.16;56.96;103019.94;5049314;28;20048;-48
2023/05/18 02:36:09;;;;;;;10.38;3.95;;;;;;;11.18;56.81;103022.63;5048590;28;20112;-45
2023/05/18 02:38:36;;;;;;;8.02;3.80;;;;;;;11.14;56.92;103016.41;5048356;28;20128;-45
2023/05/18 02:41:01;;;;;;;9.80;4.10;;;;;;;11.08;57.23;103017.84;5048500;28;20410;-45
2023/05/18 02:43:27;;;;;;;8.77;4.03;;;;;;;10.94;57.53;103015.47;5050152;28;20029;-44
2023/05/18 02:45:52;;;;;;;12.57;4.53;;;;;;;10.96;57.63;103010.34;5049786;28;20044;-45
2023/05/18 02:48:17;;;;;;;8.88;3.70;;;;;;;11.03;57.27;103015.03;5048085;28;20063;-48
2023/05/18 02:50:44;;;;;;;11.90;4.38;;;;;;;11.03;57.22;103012.41;5048025;28;20399;-49
2023/05/18 02:53:10;;;;;;;9.82;3.83;;;;;;;10.97;57.04;103012.13;5048123;28;20037;-44
2023/05/18 02:55:36;;;;;;;9.63;4.10;;;;;;;10.96;57.84;103012.94;5048822;28;20082;-46
2023/05/18 02:58:02;;;;;;;8.52;4.05;;;;;;;10.96;57.68;103007.72;5046906;28;20036;-44
2023/05/18 03:00:29;;;;;;;8.35;4.03;;;;;;;10.96;57.32;103012.94;5048413;28;20552;-45
2023/05/18 03:02:56;;;;;;;9.85;4.05;;;;;;;10.96;57.67;103013.84;5048347;28;20585;-50
2023/05/18 03:05:22;;;;;;;8.75;4.10;;;;;;;10.94;57.63;103006.75;5048925;28;20044;-47
2023/05/18 03:07:49;;;;;;;11.18;3.90;;;;;;;10.94;57.37;103006.75;5048832;28;20035;-48
2023/05/18 03:10:15;;;;;;;8.43;3.90;;;;;;;10.87;57.89;103007.28;5048538;28;20059;-44
2023/05/18 03:12:41;;;;;;;10.20;4.15;;;;;;;11.00;57.11;103012.25;5048111;28;20429;-45
2023/05/18 03:15:07;;;;;;;11.15;4.35;;;;;;;11.01;56.94;103014.03;5049090;28;20032;-46
2023/05/18 03:17:32;;;;;;;9.80;3.58;;;;;;;11.05;56.98;103004.63;5048541;28;20041;-46
2023/05/18 03:19:57;;;;;;;8.23;3.97;;;;;;;11.10;56.50;103014.44;5049489;28;20116;-47
2023/05/18 03:22:23;;;;;;;9.15;3.83;;;;;;;11.10;55.94;103011.84;5049390;28;20394;-44
2023/05/18 03:24:50;;;;;;;9.85;3.47;;;;;;;11.10;56.23;103014.44;5048821;28;20062;-44
2023/05/18 03:27:17;;;;;;;8.30;4.00;;;;;;;11.08;56.41;103017.84;5048496;28;20032;-45
2023/05/18 03:29:42;;;;;;;8.38;3.47;;;;;;;11.10;56.24;103010.97;5048081;28;20655;-46
2023/05/18 03:32:08;;;;;;;8.95;3.47;;;;;;;11.05;56.29;103015.06;5048498;28;20075;-47
2023/05/18 03:34:33;;;;;;;8.77;3.90;;;;;;;11.00;56.33;103017.47;5048018;28;20083;-46
2023/05/18 03:36:59;;;;;;;10.35;3.90;;;;;;;11.05;56.15;103015.97;5048364;28;20051;-50
2023/05/18 03:39:24;;;;;;;9.98;3.90;;;;;;;11.01;56.19;103008.81;5049113;28;20029;-44
2023/05/18 03:41:50;;;;;;;7.75;3.88;;;;;;;11.03;56.07;103014.13;5048489;28;20044;-47
2023/05/18 03:44:15;;;;;;;9.88;3.88;;;;;;;11.06;55.92;103015.13;5048149;28;20033;-45
2023/05/18 03:46:40;;;;;;;9.60;3.83;;;;;;;11.03;55.93;103020.25;5048244;28;20036;-45
2023/05/18 03:49:06;;;;;;;8.07;3.70;;;;;;;11.01;56.07;103013.16;5048719;28;20032;-53
2023/05/18 03:51:32;;;;;;;9.43;4.00;;;;;;;10.99;56.29;103013.97;5047928;28;20033;-49
2023/05/18 03:53:57;;;;;;;10.38;4.45;;;;;;;11.02;56.32;103014.94;5047496;28;20456;-45
2023/05/18 03:56:23;;;;;;;11.45;3.95;;;;;;;10.98;56.46;103017.41;5047587;28;20262;-47
2023/05/18 03:58:50;;;;;;;10.73;4.30;;;;;;;11.02;56.22;103021.06;5048055;28;20072;-47
2023/05/18 04:01:17;;;;;;;9.60;4.45;;;;;;;11.05;56.29;103022.91;5050655;28;20124;-47
2023/05/18 04:03:44;;;;;;;8.80;4.07;;;;;;;11.09;56.52;103023.13;5051555;28;20025;-46
2023/05/18 04:06:09;;;;;;;10.15;3.75;;;;;;;11.09;55.92;103014.41;5051272;28;20410;-42
2023/05/18 04:08:35;;;;;;;9.95;4.22;;;;;;;11.13;56.24;103021.53;5051990;28;20029;-46
2023/05/18 04:11:01;;;;;;;8.40;3.75;;;;;;;11.09;56.66;103017.91;5051121;28;20037;-47
2023/05/18 04:13:26;;;;;;;12.05;4.32;;;;;;;11.05;56.62;103021.19;5050820;28;20388;-46
2023/05/18 04:15:51;;;;;;;9.40;4.00;;;;;;;11.10;56.62;103022.28;5051168;28;20036;-50
2023/05/18 04:18:17;;;;;;;11.98;4.13;;;;;;;11.11;57.12;103020.56;5050665;28;20037;-48
2023/05/18 04:20:44;;;;;;;8.55;3.97;;;;;;;11.15;56.63;103028.63;5051454;28;20404;-48
2023/05/18 04:23:10;;;;;;;9.80;4.10;;;;;;;11.24;57.03;103025.53;5051436;28;20037;-44
2023/05/18 04:25:38;;;;;;;10.13;4.10;;;;;;;11.29;56.80;103024.91;5051611;28;20490;-49
2023/05/18 04:28:04;;;;;;;12.18;4.55;;;;;;;11.36;56.57;103029.56;5053013;28;20064;-46
2023/05/18 04:30:29;;;;;;;10.80;4.10;;;;;;;11.37;56.83;103025.25;5054786;28;20037;-47
2023/05/18 04:32:57;;;;;;;10.05;4.60;;;;;;;11.42;56.85;103030.66;5054037;28;20510;-45
2023/05/18 04:35:24;;;;;;;10.02;4.03;;;;;;;11.52;56.69;103027.66;5054658;28;20056;-47
2023/05/18 04:37:50;;;;;;;13.80;4.53;;;;;;;11.54;56.87;103031.19;5053353;28;20102;-49
2023/05/18 04:40:16;;;;;;;13.02;4.75;;;;;;;11.55;57.01;103035.59;5054017;28;20037;-46
2023/05/18 04:42:46;;;;;;;8.88;4.25;;;;;;;11.66;56.38;103039.56;5053664;28;20422;-44
2023/05/18 04:45:16;;;;;;;9.23;4.00;;;;;;;11.76;56.13;103037.47;5053374;28;20491;-47
2023/05/18 04:47:45;;;;;;;10.07;4.28;;;;;;;11.88;55.88;103037.09;5050550;28;20025;-47
2023/05/18 04:50:15;;;;;;;10.90;4.55;;;;;;;11.85;56.13;103049.13;5050573;28;20025;-46
2023/05/18 04:52:46;;;;;;;11.32;4.20;;;;;;;11.92;55.91;103044.25;5050535;28;20033;-45
2023/05/18 04:55:12;;;;;;;10.52;4.10;;;;;;;12.04;55.47;103044.75;5050069;28;20037;-45
2023/05/18 04:57:38;;;;;;;13.13;4.03;;;;;;;12.25;54.71;103042.16;5050578;28;20613;-46
2023/05/18 05:00:04;;;;;;;8.18;3.78;;;;;;;12.24;54.04;103047.31;5050783;28;20036;-49
2023/05/18 05:02:30;;;;;;;11.40;3.70;;;;;;;12.39;53.65;103043.56;5050336;28;20033;-47
2023/05/18 05:04:55;;;;;;;9.40;3.83;;;;;;;12.60;53.11;103041.84;5050244;28;20496;-46
2023/05/18 05:07:21;;;;;;;9.27;3.78;;;;;;;12.85;52.78;103037.53;5048764;28;20091;-44
2023/05/18 05:09:46;;;;;;;9.48;3.55;;;;;;;12.99;51.20;103046.84;5050004;28;20040;-46
2023/05/18 05:12:11;;;;;;;8.90;3.47;;;;;;;13.54;50.85;103047.13;5051165;28;20036;-51
2023/05/18 05:14:37;;;;;;;10.70;3.38;;;;;;;14.55;48.74;103038.34;5050878;28;20541;-46
2023/05/18 05:17:02;;;;;;;7.82;2.85;;;;;;;15.33;44.63;103046.81;5050113;28;20124;-48
2023/05/18 05:19:27;;;;;;;8.15;2.85;;;;;;;15.97;42.22;103038.09;5050476;28;20033;-44
2023/05/18 05:21:53;;;;;;;8.38;2.58;;;;;;;16.28;42.61;103042.38;5050344;28;20025;-45
2023/05/18 05:24:18;;;;;;;7.78;2.60;;;;;;;16.91;40.36;103041.25;5050641;28;20033;-49
2023/05/18 05:26:43;;;;;;;9.05;2.53;;;;;;;16.92;40.28;103040.41;5050051;28;20487;-46
2023/05/18 05:29:09;;;;;;;6.63;2.45;;;;;;;17.57;38.81;103032.91;5050107;28;20033;-43
2023/05/18 05:31:34;;;;;;;8.00;2.78;;;;;;;17.58;37.61;103034.69;5050505;28;20115;-44
2023/05/18 05:34:00;;;;;;;9.48;2.97;;;;;;;17.68;37.88;103035.81;5049663;28;20104;-46
2023/05/18 05:36:25;;;;;;;6.70;2.55;;;;;;;18.08;36.70;103037.38;5049961;28;20137;-48
2023/05/18 05:38:50;;;;;;;10.65;2.50;;;;;;;17.48;37.38;103045.06;5049595;28;20163;-45
2023/05/18 05:41:16;;;;;;;7.00;2.65;;;;;;;16.90;37.47;103038.56;5049320;28;20535;-47
2023/05/18 05:43:41;;;;;;;7.18;2.42;;;;;;;17.08;38.80;103040.75;5048446;28;20041;-47
2023/05/18 05:46:06;;;;;;;6.22;2.50;;;;;;;16.72;38.05;103035.53;5049853;28;20056;-47
2023/05/18 05:48:32;;;;;;;10.05;2.70;;;;;;;16.73;39.02;103032.94;5049507;28;20029;-44
2023/05/18 05:50:57;;;;;;;8.18;2.55;;;;;;;16.76;38.27;103040.94;5049337;28;20033;-49
2023/05/18 05:53:22;;;;;;;9.85;2.65;;;;;;;17.73;37.04;103039.41;5049172;28;20060;-44
2023/05/18 05:55:48;;;;;;;10.13;2.80;;;;;;;18.18;36.59;103049.88;5049296;28;20037;-48
2023/05/18 05:58:13;;;;;;;8.15;2.38;;;;;;;18.34;35.23;103048.38;5048989;28;20041;-46
2023/05/18 06:00:38;;;;;;;8.18;2.58;;;;;;;18.43;34.59;103046.75;5050218;28;20041;-46
2023/05/18 06:03:04;;;;;;;6.25;2.20;;;;;;;19.54;32.90;103055.34;5049504;28;20037;-46
2023/05/18 06:05:29;;;;;;;8.35;2.50;;;;;;;19.65;33.24;103051.94;5049405;28;20705;-43
2023/05/18 06:07:56;;;;;;;7.18;2.40;;;;;;;19.63;33.60;103055.47;5049505;28;20025;-45
2023/05/18 06:10:21;;;;;;;9.95;2.55;;;;;;;19.79;32.54;103062.69;5049473;28;20044;-46
2023/05/18 06:12:46;;;;;;;7.43;2.33;;;;;;;20.12;32.77;103063.00;5049019;28;20113;-48
2023/05/18 06:15:12;;;;;;;8.02;2.50;;;;;;;19.51;33.39;103066.81;5048865;28;20036;-45
2023/05/18 06:17:38;;;;;;;8.77;2.50;;;;;;;19.56;32.61;103064.19;5049097;28;20179;-46
2023/05/18 06:20:05;;;;;;;6.70;2.45;;;;;;;19.26;33.37;103064.69;5048698;28;20063;-46
2023/05/18 06:22:31;;;;;;;10.23;2.30;;;;;;;18.55;35.17;103059.28;5048541;28;20025;-49
2023/05/18 06:24:56;;;;;;;8.25;2.60;;;;;;;19.30;33.22;103069.16;5050003;28;20695;-43
2023/05/18 06:27:22;;;;;;;8.23;2.42;;;;;;;19.78;32.63;103075.03;5049040;28;20111;-45
2023/05/18 06:29:47;;;;;;;7.78;2.58;;;;;;;20.23;32.29;103065.72;5049005;28;20391;-50
2023/05/18 06:32:12;;;;;;;8.10;2.30;;;;;;;21.20;31.53;103071.72;5048802;28;20037;-44
2023/05/18 06:34:38;;;;;;;7.43;2.40;;;;;;;21.69;30.50;103072.75;5049117;28;20036;-54
2023/05/18 06:37:04;;;;;;;6.68;2.20;;;;;;;22.49;28.51;103061.31;5048434;28;20040;-52
2023/05/18 06:39:29;;;;;;;6.75;2.67;;;;;;;21.48;28.61;103075.34;5048925;28;20048;-45
2023/05/18 06:41:55;;;;;;;8.07;2.67;;;;;;;21.73;28.87;103074.53;5048913;28;20037;-44
2023/05/18 06:44:20;;;;;;;9.05;2.50;;;;;;;21.13;29.85;103074.28;5048831;28;20064;-50
2023/05/18 06:46:46;;;;;;;6.40;2.30;;;;;;;21.84;29.57;103069.22;5048489;28;20601;-48
2023/05/18 06:49:12;;;;;;;5.47;2.38;;;;;;;21.41;29.87;103068.22;5048510;28;20032;-45
2023/05/18 06:51:37;;;;;;;7.13;2.50;;;;;;;20.96;30.54;103072.44;5048747;28;20029;-48
2023/05/18 06:54:02;;;;;;;9.68;2.40;;;;;;;21.08;29.60;103073.38;5048416;28;20029;-47
2023/05/18 06:56:28;;;;;;;7.63;2.70;;;;;;;20.34;30.53;103064.09;5048622;28;20388;-46
2023/05/18 06:58:54;;;;;;;9.15;2.60;;;;;;;20.58;30.31;103066.03;5048294;28;20048;-45
2023/05/18 07:01:19;;;;;;;6.90;2.47;;;;;;;20.45;31.24;103070.34;5048252;28;20491;-47
2023/05/18 07:03:44;;;;;;;10.15;2.53;;;;;;;20.86;30.56;103086.50;5048373;28;20063;-45
2023/05/18 07:06:10;;;;;;;12.32;2.78;;;;;;;20.44;30.49;103071.22;5048126;28;20029;-44
2023/05/18 07:08:35;;;;;;;8.10;2.40;;;;;;;20.70;30.56;103071.41;5048657;28;20040;-46
2023/05/18 07:11:02;;;;;;;9.88;2.42;;;;;;;21.57;27.83;103071.84;5048310;28;20033;-45
2023/05/18 07:13:27;;;;;;;8.43;2.40;;;;;;;21.91;28.25;103076.31;5048181;28;20071;-49
2023/05/18 07:15:53;;;;;;;12.25;2.78;;;;;;;22.12;27.90;103073.72;5048073;28;20049;-48
2023/05/18 07:18:18;;;;;;;10.65;2.83;;;;;;;21.18;28.65;103073.47;5047811;28;20453;-51
2023/05/18 07:20:43;;;;;;;8.18;2.35;;;;;;;22.16;27.83;103075.50;5047987;28;20032;-46
2023/05/18 07:23:08;;;;;;;6.78;2.45;;;;;;;21.54;28.88;103072.69;5048786;28;20084;-46
2023/05/18 07:25:34;;;;;;;7.45;2.45;;;;;;;22.07;28.47;103080.81;5048719;28;20037;-50
2023/05/18 07:28:00;;;;;;;6.72;2.20;;;;;;;22.05;28.18;103079.91;5048042;28;20120;-45
2023/05/18 07:30:25;;;;;;;7.35;2.38;;;;;;;21.50;28.87;103078.00;5048219;28;20124;-50
2023/05/18 07:32:51;;;;;;;6.63;2.40;;;;;;;20.65;30.22;103083.75;5047848;28;20087;-45
2023/05/18 07:35:19;;;;;;;11.00;2.40;;;;;;;20.82;29.64;103082.09;5052036;28;20041;-46
2023/05/18 07:37:44;;;;;;;6.85;2.38;;;;;;;20.67;28.79;103088.16;5051887;28;20442;-45
2023/05/18 07:40:10;;;;;;;7.45;2.63;;;;;;;20.05;30.88;103087.66;5052120;28;20036;-46
2023/05/18 07:42:37;;;;;;;8.63;2.60;;;;;;;20.45;30.56;103094.19;5052417;28;20094;-48
2023/05/18 07:45:03;;;;;;;10.48;2.42;;;;;;;21.23;29.96;103086.75;5051869;28;20441;-49
2023/05/18 07:47:28;;;;;;;7.10;2.60;;;;;;;21.79;28.43;103085.16;5052003;28;20029;-47
2023/05/18 07:49:54;;;;;;;10.43;2.75;;;;;;;22.54;28.15;103082.56;5051844;28;20040;-47
2023/05/18 07:52:19;;;;;;;8.23;2.67;;;;;;;22.80;27.73;103085.22;5051760;28;20033;-48
2023/05/18 07:54:44;;;;;;;6.10;2.58;;;;;;;22.41;28.07;103087.00;5051861;28;20084;-49
2023/05/18 07:57:09;;;;;;;9.50;2.40;;;;;;;21.72;29.74;103090.44;5051790;28;20036;-50
2023/05/18 07:59:35;;;;;;;7.15;2.80;;;;;;;21.22;29.89;103092.94;5052329;28;20610;-46
2023/05/18 08:02:00;;;;;;;9.38;2.80;;;;;;;21.98;28.43;103085.22;5051804;28;20451;-46
2023/05/18 08:04:26;;;;;;;10.40;2.72;;;;;;;20.89;29.80;103091.84;5051652;28;20037;-47
2023/05/18 08:06:53;;;;;;;9.45;2.55;;;;;;;20.95;29.99;103088.34;5051695;28;20025;-45
2023/05/18 08:09:20;;;;;;;9.07;2.63;;;;;;;20.48;30.89;103088.94;5051462;28;20067;-46
2023/05/18 08:11:46;;;;;;;10.38;2.70;;;;;;;19.21;33.11;103093.72;5051525;28;20117;-48
2023/05/18 08:14:11;;;;;;;10.20;2.90;;;;;;;19.13;32.09;103092.75;5051097;28;20116;-52
2023/05/18 08:16:37;;;;;;;6.75;2.50;;;;;;;19.71;31.48;103085.53;5051686;28;20041;-48
2023/05/18 08:19:02;;;;;;;10.77;3.00;;;;;;;19.99;30.21;103087.59;5051345;28;20033;-46
2023/05/18 08:21:28;;;;;;;7.60;2.63;;;;;;;20.23;30.20;103085.16;5051377;28;20437;-46
2023/05/18 08:23:54;;;;;;;7.07;2.78;;;;;;;20.03;30.79;103086.75;5051083;28;20037;-46
2023/05/18 08:26:19;;;;;;;8.88;2.60;;;;;;;19.98;31.15;103087.56;5051308;28;20303;-47
2023/05/18 08:28:44;;;;;;;10.23;3.00;;;;;;;19.06;31.20;103098.81;5051177;28;20041;-44
2023/05/18 08:31:11;;;;;;;11.38;2.75;;;;;;;18.89;32.04;103084.47;5051479;28;20052;-45
2023/05/18 08:33:36;;;;;;;9.85;2.92;;;;;;;18.29;33.64;103085.28;5052330;28;20143;-48
2023/05/18 08:36:02;;;;;;;8.65;3.00;;;;;;;18.49;34.39;103089.09;5051412;28;20433;-44
2023/05/18 08:38:27;;;;;;;12.75;3.25;;;;;;;18.55;32.48;103085.72;5051776;28;20476;-45
2023/05/18 08:41:02;;;;;;;10.70;3.13;;;;;;;18.67;32.75;103085.00;5051157;28;20115;-44
2023/05/18 08:43:32;;;;;;;10.60;2.90;;;;;;;18.13;34.35;103084.13;5051500;28;20124;-47
2023/05/18 08:46:09;;;;;;;8.57;2.90;;;;;;;18.39;33.66;103092.47;5050246;28;20032;-44
2023/05/18 08:48:35;;;;;;;8.60;2.97;;;;;;;18.39;33.78;103087.19;5051223;28;20029;-47
2023/05/18 08:51:03;;;;;;;11.07;2.78;;;;;;;18.27;33.75;103088.75;5050795;28;20083;-44
2023/05/18 08:53:29;;;;;;;11.05;2.90;;;;;;;18.04;34.26;103091.88;5050734;28;20152;-48
2023/05/18 08:55:56;;;;;;;11.23;3.13;;;;;;;18.39;33.88;103091.59;5050406;28;20029;-47
2023/05/18 08:58:31;;;;;;;7.63;2.80;;;;;;;18.59;33.63;103084.91;5050426;28;20048;-45
2023/05/18 09:00:57;;;;;;;9.18;3.05;;;;;;;18.30;33.23;103094.09;5050412;28;20074;-50
2023/05/18 09:03:23;;;;;;;9.48;3.17;;;;;;;17.83;33.84;103084.47;5050557;28;20538;-48
2023/05/18 09:05:51;;;;;;;11.85;3.17;;;;;;;18.03;33.44;103087.47;5050550;28;20057;-51
2023/05/18 09:08:18;;;;;;;10.77;3.50;;;;;;;17.86;34.33;103085.38;5050634;28;20546;-48
2023/05/18 09:10:46;;;;;;;12.00;3.40;;;;;;;17.60;34.23;103083.13;5050023;28;20187;-45
2023/05/18 09:13:13;;;;;;;7.97;3.08;;;;;;;17.66;34.22;103072.72;5050390;28;20546;-44
2023/05/18 09:15:38;;;;;;;12.65;3.08;;;;;;;17.90;34.37;103077.53;5050465;28;20064;-44
2023/05/18 09:18:04;;;;;;;14.43;3.47;;;;;;;18.12;34.06;103069.13;5050202;28;20072;-47
2023/05/18 09:20:30;;;;;;;8.35;3.17;;;;;;;18.02;34.34;103055.75;5049991;28;20065;-47
2023/05/18 09:22:55;;;;;;;8.23;3.40;;;;;;;17.66;33.92;103063.91;5050030;28;20139;-51
2023/05/18 09:25:23;;;;;;;11.15;3.25;;;;;;;18.19;34.04;103052.53;5050268;28;20033;-47
2023/05/18 09:27:51;;;;;;;7.88;3.25;;;;;;;17.80;34.08;103057.13;5050378;28;20127;-45
2023/05/18 09:30:17;;;;;;;9.48;3.10;;;;;;;17.60;34.86;103051.50;5048342;28;20492;-47
2023/05/18 09:32:45;;;;;;;8.75;3.22;;;;;;;17.55;35.60;103049.59;5049783;28;20036;-46
2023/05/18 09:35:11;;;;;;;10.88;3.60;;;;;;;17.56;34.48;103051.38;5049817;28;20028;-46
2023/05/18 09:37:40;;;;;;;12.20;3.63;;;;;;;17.66;34.25;103048.97;5050035;28;20044;-44
2023/05/18 09:40:07;;;;;;;10.85;3.13;;;;;;;17.71;34.86;103051.69;5050060;28;20120;-45
2023/05/18 09:42:43;;;;;;;10.02;3.22;;;;;;;17.87;34.42;103053.72;5049766;28;20076;-46
2023/05/18 09:45:22;;;;;;;8.35;3.28;;;;;;;17.59;34.87;103059.31;5049863;28;20694;-47
2023/05/18 09:47:52;;;;;;;12.43;3.63;;;;;;;17.61;34.98;103047.09;5049559;28;20112;-47
2023/05/18 09:50:22;;;;;;;9.82;3.33;;;;;;;17.62;35.23;103060.34;5049592;28;20388;-45
2023/05/18 09:52:50;;;;;;;11.48;3.20;;;;;;;17.37;34.85;103056.28;5049585;28;20063;-48
2023/05/18 09:55:17;;;;;;;10.15;3.40;;;;;;;17.31;35.36;103057.91;5049526;28;20067;-47
2023/05/18 09:57:44;;;;;;;7.43;3.30;;;;;;;17.63;34.73;103058.53;5048487;28;20060;-47
2023/05/18 10:00:11;;;;;;;12.18;3.17;;;;;;;17.43;34.79;103058.16;5049366;28;20419;-44
2023/05/18 10:02:39;;;;;;;7.00;3.08;;;;;;;17.22;34.71;103053.31;5049747;28;20541;-47
2023/05/18 10:05:05;;;;;;;8.98;2.95;;;;;;;17.17;34.89;103059.38;5049275;28;20059;-43
2023/05/18 10:07:33;;;;;;;7.47;3.00;;;;;;;17.50;35.26;103062.69;5049083;28;20045;-45
2023/05/18 10:10:02;;;;;;;5.70;2.95;;;;;;;17.58;34.59;103061.06;5049390;28;20025;-45
2023/05/18 10:12:28;;;;;;;7.22;2.80;;;;;;;17.16;34.74;103055.84;5048896;28;20439;-47
2023/05/18 10:14:53;;;;;;;7.43;2.45;;;;;;;17.46;34.37;103058.19;5048972;28;20167;-48
2023/05/18 10:17:19;;;;;;;10.30;3.22;;;;;;;17.29;35.37;103060.50;5048564;28;20037;-46
2023/05/18 10:19:49;;;;;;;10.80;3.42;;;;;;;17.15;35.93;103058.44;5049446;28;20487;-45
2023/05/18 10:22:17;;;;;;;9.70;3.50;;;;;;;16.94;35.72;103056.25;5049003;28;20403;-46
2023/05/18 10:24:47;;;;;;;9.48;3.38;;;;;;;17.17;35.72;103060.25;5049672;28;20274;-45
2023/05/18 10:27:13;;;;;;;11.90;3.50;;;;;;;17.23;35.95;103052.47;5049404;28;20044;-44
2023/05/18 10:29:39;;;;;;;13.18;4.07;;;;;;;17.04;36.35;103042.41;5050019;28;20108;-53
2023/05/18 10:32:10;;;;;;;7.55;3.20;;;;;;;17.56;36.06;103046.09;5049011;28;20102;-51
2023/05/18 10:34:37;;;;;;;9.85;3.75;;;;;;;16.84;35.73;103039.31;5048329;28;20033;-46
2023/05/18 10:37:04;;;;;;;10.60;3.60;;;;;;;17.16;36.26;103042.66;5048860;28;20052;-47
2023/05/18 10:39:35;;;;;;;10.88;3.80;;;;;;;17.23;35.37;103038.41;5048369;28;20036;-50
2023/05/18 10:42:02;;;;;;;9.73;3.80;;;;;;;17.00;36.61;103038.81;5048606;28;20036;-49
2023/05/18 10:44:28;;;;;;;9.50;4.20;;;;;;;17.08;36.86;103040.75;5048448;28;20473;-45
2023/05/18 10:46:54;;;;;;;11.90;4.00;;;;;;;17.56;36.27;103044.34;5049122;28;20363;-43
2023/05/18 10:49:24;;;;;;;10.82;3.90;;;;;;;17.91;35.42;103030.94;5048319;28;20039;-49
2023/05/18 10:51:52;;;;;;;11.73;4.30;;;;;;;17.80;35.39;103028.13;5048587;28;20111;-46
2023/05/18 10:54:18;;;;;;;8.45;3.78;;;;;;;17.82;34.78;103026.38;5048350;28;20514;-46
2023/05/18 10:56:47;;;;;;;9.80;4.38;;;;;;;18.24;34.84;103027.09;5048760;28;20040;-46
2023/05/18 10:59:13;;;;;;;12.05;4.18;;;;;;;17.72;35.80;103025.34;5048299;28;20033;-50
2023/05/18 11:01:42;;;;;;;11.85;4.32;;;;;;;17.61;35.42;103023.38;5048379;28;20552;-48
2023/05/18 11:04:08;;;;;;;11.88;4.18;;;;;;;17.53;35.42;103022.28;5048081;28;20036;-49
2023/05/18 11:06:34;;;;;;;8.98;4.10;;;;;;;17.54;35.92;103019.69;5048088;28;20372;-46
2023/05/18 11:09:00;;;;;;;10.73;4.40;;;;;;;17.86;36.63;103019.41;5048085;28;20111;-45
2023/05/18 11:11:28;;;;;;;11.10;4.35;;;;;;;18.35;34.89;103018.47;5048064;28;20033;-46
2023/05/18 11:13:59;;;;;;;13.30;4.20;;;;;;;17.88;34.80;103013.28;5048176;28;20056;-45
2023/05/18 11:16:35;;;;;;;6.85;3.65;;;;;;;18.36;34.54;103014.97;5048116;28;20838;-44
2023/05/18 11:19:06;;;;;;;9.63;4.20;;;;;;;18.72;33.08;103022.56;5048111;28;20472;-48